Penistone, United Kingdom
Current Conditions -  °F | °C
As of 6:20 AM on Tuesday 21 Oct 2014 (Local Time) from EGNM Reporting Station
Moderate Rain Moderate Rain  
Wind Chill: 12°   Ceiling: 900
Heat Index: 12°   Visibility: 6mi
Dew Point: 11°   Wind: 21mph
Humidity: 94%   Direction: 240°WSW
Pressure: 29.26"   Gusts: 33mph
Location:  53.53°N, 1.63°W
Report Text: EGNM 210520Z 24018G29KT 200V270 9999 RA FEW005 BKN009 12/11 Q0991
Loading
Personal Weather Stations






























Interactive Weather Map
Tropical Storm Tracking
New forecast layout! Learn more

10-Day Weather Forecast

Advertisements
Track Severe Weather on mobile